sensor_id;sensor_type;location;lat;lon;timestamp;P1;durP1;ratioP1;P2;durP2;ratioP2
51048;SDS011;37084;55.228;36.450;2023-06-24T00:00:25;10.98;;;7.28;;
51048;SDS011;37084;55.228;36.450;2023-06-24T00:03:26;12.23;;;7.60;;
51048;SDS011;37084;55.228;36.450;2023-06-24T00:06:27;14.75;;;7.80;;
51048;SDS011;37084;55.228;36.450;2023-06-24T00:09:29;11.77;;;7.65;;
51048;SDS011;37084;55.228;36.450;2023-06-24T00:12:31;12.13;;;7.97;;
51048;SDS011;37084;55.228;36.450;2023-06-24T00:15:33;11.52;;;7.97;;
51048;SDS011;37084;55.228;36.450;2023-06-24T00:18:35;16.35;;;7.95;;
51048;SDS011;37084;55.228;36.450;2023-06-24T00:21:37;11.68;;;7.13;;
51048;SDS011;37084;55.228;36.450;2023-06-24T00:24:40;14.63;;;7.90;;
51048;SDS011;37084;55.228;36.450;2023-06-24T00:27:43;10.98;;;6.80;;
51048;SDS011;37084;55.228;36.450;2023-06-24T00:30:44;14.25;;;8.07;;
51048;SDS011;37084;55.228;36.450;2023-06-24T00:33:45;11.48;;;7.68;;
51048;SDS011;37084;55.228;36.450;2023-06-24T00:36:46;14.32;;;8.30;;
51048;SDS011;37084;55.228;36.450;2023-06-24T00:39:48;12.80;;;8.23;;
51048;SDS011;37084;55.228;36.450;2023-06-24T00:42:49;10.50;;;7.28;;
51048;SDS011;37084;55.228;36.450;2023-06-24T00:45:50;16.77;;;7.82;;
51048;SDS011;37084;55.228;36.450;2023-06-24T00:48:56;12.90;;;8.07;;
51048;SDS011;37084;55.228;36.450;2023-06-24T00:52:00;12.02;;;7.15;;
51048;SDS011;37084;55.228;36.450;2023-06-24T00:55:01;14.70;;;8.38;;
51048;SDS011;37084;55.228;36.450;2023-06-24T00:58:05;12.55;;;7.47;;
51048;SDS011;37084;55.228;36.450;2023-06-24T01:01:06;11.93;;;7.55;;
51048;SDS011;37084;55.228;36.450;2023-06-24T01:04:09;16.50;;;7.78;;
51048;SDS011;37084;55.228;36.450;2023-06-24T01:07:10;14.57;;;8.10;;
51048;SDS011;37084;55.228;36.450;2023-06-24T01:10:11;14.70;;;7.75;;
51048;SDS011;37084;55.228;36.450;2023-06-24T01:13:13;12.05;;;7.03;;
51048;SDS011;37084;55.228;36.450;2023-06-24T01:16:26;11.98;;;7.50;;
51048;SDS011;37084;55.228;36.450;2023-06-24T01:19:37;12.48;;;7.63;;
51048;SDS011;37084;55.228;36.450;2023-06-24T01:30:11;12.52;;;7.30;;
51048;SDS011;37084;55.228;36.450;2023-06-24T01:33:25;11.60;;;7.45;;
51048;SDS011;37084;55.228;36.450;2023-06-24T01:36:33;12.30;;;7.60;;
51048;SDS011;37084;55.228;36.450;2023-06-24T01:39:38;14.48;;;7.72;;
51048;SDS011;37084;55.228;36.450;2023-06-24T01:42:50;11.07;;;7.70;;
51048;SDS011;37084;55.228;36.450;2023-06-24T01:45:51;11.88;;;7.38;;
51048;SDS011;37084;55.228;36.450;2023-06-24T01:48:55;10.80;;;7.38;;
51048;SDS011;37084;55.228;36.450;2023-06-24T01:52:00;10.30;;;7.10;;
51048;SDS011;37084;55.228;36.450;2023-06-24T01:55:02;12.50;;;7.53;;
51048;SDS011;37084;55.228;36.450;2023-06-24T01:58:05;10.73;;;7.13;;
51048;SDS011;37084;55.228;36.450;2023-06-24T02:01:08;13.77;;;6.75;;
51048;SDS011;37084;55.228;36.450;2023-06-24T02:04:09;12.52;;;7.78;;
51048;SDS011;37084;55.228;36.450;2023-06-24T02:07:12;14.13;;;7.00;;
51048;SDS011;37084;55.228;36.450;2023-06-24T02:10:15;11.55;;;7.05;;
51048;SDS011;37084;55.228;36.450;2023-06-24T02:13:21;10.77;;;6.80;;
51048;SDS011;37084;55.228;36.450;2023-06-24T02:16:23;11.07;;;6.97;;
51048;SDS011;37084;55.228;36.450;2023-06-24T02:19:27;10.65;;;6.95;;
51048;SDS011;37084;55.228;36.450;2023-06-24T02:22:31;13.07;;;7.10;;
51048;SDS011;37084;55.228;36.450;2023-06-24T02:25:33;11.38;;;6.70;;
51048;SDS011;37084;55.228;36.450;2023-06-24T02:28:34;11.25;;;6.82;;
51048;SDS011;37084;55.228;36.450;2023-06-24T02:31:37;11.30;;;7.13;;
51048;SDS011;37084;55.228;36.450;2023-06-24T02:34:39;10.75;;;6.93;;
51048;SDS011;37084;55.228;36.450;2023-06-24T02:37:40;10.57;;;6.95;;
51048;SDS011;37084;55.228;36.450;2023-06-24T02:40:43;11.75;;;6.90;;
51048;SDS011;37084;55.228;36.450;2023-06-24T02:43:45;12.13;;;7.28;;
51048;SDS011;37084;55.228;36.450;2023-06-24T02:46:46;14.20;;;6.68;;
51048;SDS011;37084;55.228;36.450;2023-06-24T02:49:48;10.93;;;6.53;;
51048;SDS011;37084;55.228;36.450;2023-06-24T02:52:52;10.75;;;6.85;;
51048;SDS011;37084;55.228;36.450;2023-06-24T02:55:56;9.55;;;6.28;;
51048;SDS011;37084;55.228;36.450;2023-06-24T02:58:58;11.05;;;6.75;;
51048;SDS011;37084;55.228;36.450;2023-06-24T03:02:01;13.38;;;7.20;;
51048;SDS011;37084;55.228;36.450;2023-06-24T03:05:02;9.10;;;6.60;;
51048;SDS011;37084;55.228;36.450;2023-06-24T03:08:06;11.18;;;6.40;;
51048;SDS011;37084;55.228;36.450;2023-06-24T03:11:11;10.90;;;6.80;;
51048;SDS011;37084;55.228;36.450;2023-06-24T03:14:14;10.02;;;6.50;;
51048;SDS011;37084;55.228;36.450;2023-06-24T03:17:17;9.10;;;6.53;;
51048;SDS011;37084;55.228;36.450;2023-06-24T03:20:19;10.40;;;6.47;;
51048;SDS011;37084;55.228;36.450;2023-06-24T03:23:22;11.20;;;6.85;;
51048;SDS011;37084;55.228;36.450;2023-06-24T03:26:23;10.18;;;6.90;;
51048;SDS011;37084;55.228;36.450;2023-06-24T03:29:24;11.40;;;6.63;;
51048;SDS011;37084;55.228;36.450;2023-06-24T03:32:47;11.15;;;6.80;;
51048;SDS011;37084;55.228;36.450;2023-06-24T03:35:49;8.98;;;6.20;;
51048;SDS011;37084;55.228;36.450;2023-06-24T03:38:55;8.57;;;6.20;;
51048;SDS011;37084;55.228;36.450;2023-06-24T03:41:56;10.30;;;6.65;;
51048;SDS011;37084;55.228;36.450;2023-06-24T03:44:58;10.15;;;6.55;;
51048;SDS011;37084;55.228;36.450;2023-06-24T03:47:59;11.32;;;6.70;;
51048;SDS011;37084;55.228;36.450;2023-06-24T03:51:00;8.80;;;6.45;;
51048;SDS011;37084;55.228;36.450;2023-06-24T03:54:04;9.55;;;6.75;;
51048;SDS011;37084;55.228;36.450;2023-06-24T03:57:06;9.57;;;6.45;;
51048;SDS011;37084;55.228;36.450;2023-06-24T04:00:09;10.25;;;6.82;;
51048;SDS011;37084;55.228;36.450;2023-06-24T04:03:17;10.82;;;6.10;;
51048;SDS011;37084;55.228;36.450;2023-06-24T04:06:18;8.95;;;6.30;;
51048;SDS011;37084;55.228;36.450;2023-06-24T04:09:20;10.25;;;6.75;;
51048;SDS011;37084;55.228;36.450;2023-06-24T04:12:22;10.68;;;6.80;;
51048;SDS011;37084;55.228;36.450;2023-06-24T04:15:24;11.10;;;6.93;;
51048;SDS011;37084;55.228;36.450;2023-06-24T04:18:25;9.50;;;7.18;;
51048;SDS011;37084;55.228;36.450;2023-06-24T04:21:28;11.00;;;6.60;;
51048;SDS011;37084;55.228;36.450;2023-06-24T04:24:30;10.38;;;6.75;;
51048;SDS011;37084;55.228;36.450;2023-06-24T04:27:33;9.98;;;6.45;;
51048;SDS011;37084;55.228;36.450;2023-06-24T04:30:34;11.35;;;7.00;;
51048;SDS011;37084;55.228;36.450;2023-06-24T04:33:37;9.75;;;7.15;;
51048;SDS011;37084;55.228;36.450;2023-06-24T04:36:39;9.27;;;6.40;;
51048;SDS011;37084;55.228;36.450;2023-06-24T04:39:40;10.38;;;6.70;;
51048;SDS011;37084;55.228;36.450;2023-06-24T04:42:42;10.02;;;7.07;;
51048;SDS011;37084;55.228;36.450;2023-06-24T04:45:43;9.13;;;6.53;;
51048;SDS011;37084;55.228;36.450;2023-06-24T04:48:44;9.85;;;6.40;;
51048;SDS011;37084;55.228;36.450;2023-06-24T04:51:46;9.30;;;6.07;;
51048;SDS011;37084;55.228;36.450;2023-06-24T04:54:47;10.25;;;6.72;;
51048;SDS011;37084;55.228;36.450;2023-06-24T04:57:48;9.65;;;6.75;;
51048;SDS011;37084;55.228;36.450;2023-06-24T05:00:50;10.45;;;6.50;;
51048;SDS011;37084;55.228;36.450;2023-06-24T05:03:51;7.65;;;5.47;;
51048;SDS011;37084;55.228;36.450;2023-06-24T05:06:52;10.48;;;6.40;;
51048;SDS011;37084;55.228;36.450;2023-06-24T05:09:53;9.93;;;7.03;;
51048;SDS011;37084;55.228;36.450;2023-06-24T05:12:54;10.27;;;6.90;;
51048;SDS011;37084;55.228;36.450;2023-06-24T05:15:55;10.30;;;7.07;;
51048;SDS011;37084;55.228;36.450;2023-06-24T05:18:57;15.63;;;6.72;;
51048;SDS011;37084;55.228;36.450;2023-06-24T05:21:58;9.55;;;6.55;;
51048;SDS011;37084;55.228;36.450;2023-06-24T05:24:59;9.50;;;6.80;;
51048;SDS011;37084;55.228;36.450;2023-06-24T05:28:01;8.98;;;6.75;;
51048;SDS011;37084;55.228;36.450;2023-06-24T05:31:02;9.77;;;6.47;;
51048;SDS011;37084;55.228;36.450;2023-06-24T05:34:03;8.90;;;6.63;;
51048;SDS011;37084;55.228;36.450;2023-06-24T05:37:05;8.52;;;6.45;;
51048;SDS011;37084;55.228;36.450;2023-06-24T05:40:07;8.93;;;7.20;;
51048;SDS011;37084;55.228;36.450;2023-06-24T05:43:10;9.02;;;6.70;;
51048;SDS011;37084;55.228;36.450;2023-06-24T05:46:11;10.07;;;6.82;;
51048;SDS011;37084;55.228;36.450;2023-06-24T05:49:14;7.95;;;6.38;;
51048;SDS011;37084;55.228;36.450;2023-06-24T05:52:15;9.80;;;6.53;;
51048;SDS011;37084;55.228;36.450;2023-06-24T05:55:16;9.25;;;6.63;;
51048;SDS011;37084;55.228;36.450;2023-06-24T05:58:19;9.20;;;6.57;;
51048;SDS011;37084;55.228;36.450;2023-06-24T06:01:20;9.15;;;5.80;;
51048;SDS011;37084;55.228;36.450;2023-06-24T06:04:22;8.95;;;6.22;;
51048;SDS011;37084;55.228;36.450;2023-06-24T06:07:23;8.05;;;6.30;;
51048;SDS011;37084;55.228;36.450;2023-06-24T06:10:24;8.38;;;6.20;;
51048;SDS011;37084;55.228;36.450;2023-06-24T06:13:26;8.80;;;6.40;;
51048;SDS011;37084;55.228;36.450;2023-06-24T06:16:27;7.43;;;5.95;;
51048;SDS011;37084;55.228;36.450;2023-06-24T06:19:29;8.38;;;5.90;;
51048;SDS011;37084;55.228;36.450;2023-06-24T06:22:30;8.52;;;6.60;;
51048;SDS011;37084;55.228;36.450;2023-06-24T06:25:32;7.55;;;5.82;;
51048;SDS011;37084;55.228;36.450;2023-06-24T06:28:35;8.18;;;5.60;;
51048;SDS011;37084;55.228;36.450;2023-06-24T06:31:38;7.88;;;5.97;;
51048;SDS011;37084;55.228;36.450;2023-06-24T06:34:41;6.82;;;5.15;;
51048;SDS011;37084;55.228;36.450;2023-06-24T06:37:44;6.38;;;4.70;;
51048;SDS011;37084;55.228;36.450;2023-06-24T06:40:50;8.70;;;5.95;;
51048;SDS011;37084;55.228;36.450;2023-06-24T06:43:52;6.78;;;4.97;;
51048;SDS011;37084;55.228;36.450;2023-06-24T06:46:57;8.20;;;5.75;;
51048;SDS011;37084;55.228;36.450;2023-06-24T06:49:59;8.98;;;6.10;;
51048;SDS011;37084;55.228;36.450;2023-06-24T06:53:01;8.32;;;5.60;;
51048;SDS011;37084;55.228;36.450;2023-06-24T06:56:02;7.13;;;5.50;;
51048;SDS011;37084;55.228;36.450;2023-06-24T06:59:03;6.35;;;4.95;;
51048;SDS011;37084;55.228;36.450;2023-06-24T07:02:06;6.85;;;4.47;;
51048;SDS011;37084;55.228;36.450;2023-06-24T07:05:07;5.85;;;4.63;;
51048;SDS011;37084;55.228;36.450;2023-06-24T07:08:10;7.13;;;5.47;;
51048;SDS011;37084;55.228;36.450;2023-06-24T07:11:12;5.97;;;4.53;;
51048;SDS011;37084;55.228;36.450;2023-06-24T07:14:13;6.50;;;4.70;;
51048;SDS011;37084;55.228;36.450;2023-06-24T07:17:14;7.13;;;4.95;;
51048;SDS011;37084;55.228;36.450;2023-06-24T07:20:16;5.97;;;3.90;;
51048;SDS011;37084;55.228;36.450;2023-06-24T07:23:17;4.13;;;3.53;;
51048;SDS011;37084;55.228;36.450;2023-06-24T07:26:18;5.10;;;4.07;;
51048;SDS011;37084;55.228;36.450;2023-06-24T07:29:23;3.63;;;2.88;;
51048;SDS011;37084;55.228;36.450;2023-06-24T07:32:25;4.72;;;3.45;;
51048;SDS011;37084;55.228;36.450;2023-06-24T07:35:28;3.75;;;3.05;;
51048;SDS011;37084;55.228;36.450;2023-06-24T07:38:29;3.95;;;2.78;;
51048;SDS011;37084;55.228;36.450;2023-06-24T07:41:33;3.72;;;3.08;;
51048;SDS011;37084;55.228;36.450;2023-06-24T07:44:35;3.83;;;2.78;;
51048;SDS011;37084;55.228;36.450;2023-06-24T07:47:38;3.10;;;2.70;;
51048;SDS011;37084;55.228;36.450;2023-06-24T07:50:40;3.58;;;2.33;;
51048;SDS011;37084;55.228;36.450;2023-06-24T07:53:45;2.83;;;2.53;;
51048;SDS011;37084;55.228;36.450;2023-06-24T07:56:46;2.97;;;2.65;;
51048;SDS011;37084;55.228;36.450;2023-06-24T07:59:48;3.88;;;2.35;;
51048;SDS011;37084;55.228;36.450;2023-06-24T08:02:50;2.40;;;2.17;;
51048;SDS011;37084;55.228;36.450;2023-06-24T08:05:51;2.45;;;2.05;;
51048;SDS011;37084;55.228;36.450;2023-06-24T08:08:52;3.50;;;2.03;;
51048;SDS011;37084;55.228;36.450;2023-06-24T08:11:54;2.70;;;1.95;;
51048;SDS011;37084;55.228;36.450;2023-06-24T08:14:55;2.05;;;1.85;;
51048;SDS011;37084;55.228;36.450;2023-06-24T08:17:57;2.05;;;1.83;;
51048;SDS011;37084;55.228;36.450;2023-06-24T08:20:58;2.38;;;2.03;;
51048;SDS011;37084;55.228;36.450;2023-06-24T08:24:04;2.30;;;1.50;;
51048;SDS011;37084;55.228;36.450;2023-06-24T08:27:06;1.60;;;1.40;;
51048;SDS011;37084;55.228;36.450;2023-06-24T08:30:11;2.70;;;1.98;;
51048;SDS011;37084;55.228;36.450;2023-06-24T08:33:14;1.42;;;1.23;;
51048;SDS011;37084;55.228;36.450;2023-06-24T08:36:16;1.85;;;1.65;;
51048;SDS011;37084;55.228;36.450;2023-06-24T08:42:22;2.72;;;1.35;;
51048;SDS011;37084;55.228;36.450;2023-06-24T08:45:26;1.85;;;1.23;;
51048;SDS011;37084;55.228;36.450;2023-06-24T08:48:29;1.20;;;1.10;;
51048;SDS011;37084;55.228;36.450;2023-06-24T08:51:31;0.93;;;0.90;;
51048;SDS011;37084;55.228;36.450;2023-06-24T08:54:36;1.67;;;1.10;;
51048;SDS011;37084;55.228;36.450;2023-06-24T08:57:39;1.20;;;1.10;;
51048;SDS011;37084;55.228;36.450;2023-06-24T09:00:42;1.10;;;1.00;;
51048;SDS011;37084;55.228;36.450;2023-06-24T09:03:44;1.05;;;0.95;;
51048;SDS011;37084;55.228;36.450;2023-06-24T09:06:45;1.33;;;1.08;;
51048;SDS011;37084;55.228;36.450;2023-06-24T09:09:47;2.65;;;1.80;;
51048;SDS011;37084;55.228;36.450;2023-06-24T09:12:48;1.05;;;0.90;;
51048;SDS011;37084;55.228;36.450;2023-06-24T09:16:09;2.67;;;1.02;;
51048;SDS011;37084;55.228;36.450;2023-06-24T09:19:27;2.25;;;1.00;;
51048;SDS011;37084;55.228;36.450;2023-06-24T09:22:30;2.55;;;1.02;;
51048;SDS011;37084;55.228;36.450;2023-06-24T09:25:31;1.73;;;0.70;;
51048;SDS011;37084;55.228;36.450;2023-06-24T09:28:33;1.42;;;0.80;;
51048;SDS011;37084;55.228;36.450;2023-06-24T09:31:34;0.85;;;0.63;;
51048;SDS011;37084;55.228;36.450;2023-06-24T09:34:36;0.93;;;0.80;;
51048;SDS011;37084;55.228;36.450;2023-06-24T09:37:39;0.80;;;0.80;;
51048;SDS011;37084;55.228;36.450;2023-06-24T09:40:40;1.73;;;0.98;;
51048;SDS011;37084;55.228;36.450;2023-06-24T09:43:44;0.63;;;0.63;;
51048;SDS011;37084;55.228;36.450;2023-06-24T09:46:47;0.80;;;0.63;;
51048;SDS011;37084;55.228;36.450;2023-06-24T09:49:49;0.63;;;0.63;;
51048;SDS011;37084;55.228;36.450;2023-06-24T09:52:50;0.90;;;0.90;;
51048;SDS011;37084;55.228;36.450;2023-06-24T09:55:54;1.67;;;0.73;;
51048;SDS011;37084;55.228;36.450;2023-06-24T09:58:57;0.68;;;0.68;;
51048;SDS011;37084;55.228;36.450;2023-06-24T10:02:02;0.60;;;0.60;;
51048;SDS011;37084;55.228;36.450;2023-06-24T10:05:03;0.82;;;0.70;;
51048;SDS011;37084;55.228;36.450;2023-06-24T10:08:06;1.00;;;0.80;;
51048;SDS011;37084;55.228;36.450;2023-06-24T10:11:09;0.80;;;0.80;;
51048;SDS011;37084;55.228;36.450;2023-06-24T10:14:14;0.70;;;0.70;;
51048;SDS011;37084;55.228;36.450;2023-06-24T10:20:24;3.97;;;1.25;;
51048;SDS011;37084;55.228;36.450;2023-06-24T10:23:30;1.58;;;1.13;;
51048;SDS011;37084;55.228;36.450;2023-06-24T10:26:35;1.30;;;1.10;;
51048;SDS011;37084;55.228;36.450;2023-06-24T10:29:37;1.15;;;1.05;;
51048;SDS011;37084;55.228;36.450;2023-06-24T10:32:41;1.52;;;0.90;;
51048;SDS011;37084;55.228;36.450;2023-06-24T10:35:46;1.40;;;1.10;;
51048;SDS011;37084;55.228;36.450;2023-06-24T10:42:00;0.93;;;0.90;;
51048;SDS011;37084;55.228;36.450;2023-06-24T10:45:37;1.00;;;0.90;;
51048;SDS011;37084;55.228;36.450;2023-06-24T10:48:51;0.70;;;0.70;;
51048;SDS011;37084;55.228;36.450;2023-06-24T10:51:53;0.80;;;0.80;;
51048;SDS011;37084;55.228;36.450;2023-06-24T10:54:55;1.10;;;1.00;;
51048;SDS011;37084;55.228;36.450;2023-06-24T10:58:11;0.82;;;0.82;;
51048;SDS011;37084;55.228;36.450;2023-06-24T11:01:15;1.60;;;1.38;;
51048;SDS011;37084;55.228;36.450;2023-06-24T11:04:16;1.55;;;1.45;;
51048;SDS011;37084;55.228;36.450;2023-06-24T11:07:21;1.30;;;1.20;;
51048;SDS011;37084;55.228;36.450;2023-06-24T11:10:27;1.33;;;1.10;;
51048;SDS011;37084;55.228;36.450;2023-06-24T11:13:29;1.98;;;1.00;;
51048;SDS011;37084;55.228;36.450;2023-06-24T11:16:32;1.15;;;1.05;;
51048;SDS011;37084;55.228;36.450;2023-06-24T11:19:39;1.13;;;1.02;;
51048;SDS011;37084;55.228;36.450;2023-06-24T11:22:41;1.20;;;1.10;;
51048;SDS011;37084;55.228;36.450;2023-06-24T11:25:43;2.45;;;1.30;;
51048;SDS011;37084;55.228;36.450;2023-06-24T11:28:47;2.03;;;1.20;;
51048;SDS011;37084;55.228;36.450;2023-06-24T11:31:50;1.67;;;1.20;;
51048;SDS011;37084;55.228;36.450;2023-06-24T11:34:51;1.50;;;1.20;;
51048;SDS011;37084;55.228;36.450;2023-06-24T11:37:57;1.83;;;1.20;;
51048;SDS011;37084;55.228;36.450;2023-06-24T11:41:00;2.67;;;1.35;;
51048;SDS011;37084;55.228;36.450;2023-06-24T11:44:03;2.08;;;1.50;;
51048;SDS011;37084;55.228;36.450;2023-06-24T11:47:09;1.60;;;1.40;;
51048;SDS011;37084;55.228;36.450;2023-06-24T11:50:13;1.42;;;1.27;;
51048;SDS011;37084;55.228;36.450;2023-06-24T11:53:15;2.45;;;1.65;;
51048;SDS011;37084;55.228;36.450;2023-06-24T11:56:18;1.67;;;1.50;;
51048;SDS011;37084;55.228;36.450;2023-06-24T11:59:23;2.63;;;1.75;;
51048;SDS011;37084;55.228;36.450;2023-06-24T12:02:27;3.08;;;1.75;;
51048;SDS011;37084;55.228;36.450;2023-06-24T12:05:35;2.03;;;1.83;;
51048;SDS011;37084;55.228;36.450;2023-06-24T12:08:40;2.45;;;2.03;;
51048;SDS011;37084;55.228;36.450;2023-06-24T12:11:42;1.95;;;1.83;;
51048;SDS011;37084;55.228;36.450;2023-06-24T12:14:45;2.55;;;2.25;;
51048;SDS011;37084;55.228;36.450;2023-06-24T12:17:46;2.75;;;2.20;;
51048;SDS011;37084;55.228;36.450;2023-06-24T12:20:51;2.63;;;2.15;;
51048;SDS011;37084;55.228;36.450;2023-06-24T12:23:53;3.00;;;2.28;;
51048;SDS011;37084;55.228;36.450;2023-06-24T12:27:03;3.35;;;2.58;;
51048;SDS011;37084;55.228;36.450;2023-06-24T12:30:09;5.65;;;3.40;;
51048;SDS011;37084;55.228;36.450;2023-06-24T12:33:11;3.08;;;2.75;;
51048;SDS011;37084;55.228;36.450;2023-06-24T12:36:23;4.28;;;2.80;;
51048;SDS011;37084;55.228;36.450;2023-06-24T12:40:22;3.75;;;2.95;;
51048;SDS011;37084;55.228;36.450;2023-06-24T12:43:24;4.35;;;3.50;;
51048;SDS011;37084;55.228;36.450;2023-06-24T12:46:27;3.55;;;3.20;;
51048;SDS011;37084;55.228;36.450;2023-06-24T12:49:30;4.18;;;3.10;;
51048;SDS011;37084;55.228;36.450;2023-06-24T12:52:33;5.18;;;3.20;;
51048;SDS011;37084;55.228;36.450;2023-06-24T12:55:36;3.97;;;2.97;;
51048;SDS011;37084;55.228;36.450;2023-06-24T12:58:37;4.00;;;3.17;;
51048;SDS011;37084;55.228;36.450;2023-06-24T13:01:38;4.35;;;3.20;;
51048;SDS011;37084;55.228;36.450;2023-06-24T13:04:43;4.45;;;3.22;;
51048;SDS011;37084;55.228;36.450;2023-06-24T13:07:44;4.05;;;2.83;;
51048;SDS011;37084;55.228;36.450;2023-06-24T13:10:45;4.47;;;2.83;;
51048;SDS011;37084;55.228;36.450;2023-06-24T13:13:50;3.65;;;2.70;;
51048;SDS011;37084;55.228;36.450;2023-06-24T13:16:52;6.53;;;3.78;;
51048;SDS011;37084;55.228;36.450;2023-06-24T13:19:54;3.83;;;3.15;;
51048;SDS011;37084;55.228;36.450;2023-06-24T13:22:55;4.07;;;3.22;;
51048;SDS011;37084;55.228;36.450;2023-06-24T13:29:03;4.03;;;3.50;;
51048;SDS011;37084;55.228;36.450;2023-06-24T13:32:05;4.43;;;3.72;;
51048;SDS011;37084;55.228;36.450;2023-06-24T13:35:10;6.70;;;4.05;;
51048;SDS011;37084;55.228;36.450;2023-06-24T13:38:12;5.38;;;4.20;;
51048;SDS011;37084;55.228;36.450;2023-06-24T13:41:14;5.20;;;3.83;;
51048;SDS011;37084;55.228;36.450;2023-06-24T13:44:16;4.63;;;3.95;;
51048;SDS011;37084;55.228;36.450;2023-06-24T13:47:17;5.15;;;4.25;;
51048;SDS011;37084;55.228;36.450;2023-06-24T13:50:20;4.82;;;4.13;;
51048;SDS011;37084;55.228;36.450;2023-06-24T13:53:25;5.43;;;4.55;;
51048;SDS011;37084;55.228;36.450;2023-06-24T13:56:27;5.20;;;4.50;;
51048;SDS011;37084;55.228;36.450;2023-06-24T13:59:30;6.07;;;3.78;;
51048;SDS011;37084;55.228;36.450;2023-06-24T14:02:38;5.10;;;4.20;;
51048;SDS011;37084;55.228;36.450;2023-06-24T14:05:41;5.78;;;4.30;;
51048;SDS011;37084;55.228;36.450;2023-06-24T14:08:42;5.50;;;4.18;;
51048;SDS011;37084;55.228;36.450;2023-06-24T14:11:45;4.85;;;4.07;;
51048;SDS011;37084;55.228;36.450;2023-06-24T14:14:46;6.10;;;4.43;;
51048;SDS011;37084;55.228;36.450;2023-06-24T14:17:52;4.38;;;3.97;;
51048;SDS011;37084;55.228;36.450;2023-06-24T14:20:54;4.10;;;3.63;;
51048;SDS011;37084;55.228;36.450;2023-06-24T14:23:59;3.85;;;3.22;;
51048;SDS011;37084;55.228;36.450;2023-06-24T14:27:01;4.65;;;3.20;;
51048;SDS011;37084;55.228;36.450;2023-06-24T14:30:02;4.55;;;3.22;;
51048;SDS011;37084;55.228;36.450;2023-06-24T14:33:05;4.20;;;3.28;;
51048;SDS011;37084;55.228;36.450;2023-06-24T14:36:07;6.32;;;3.25;;
51048;SDS011;37084;55.228;36.450;2023-06-24T14:39:08;4.38;;;3.60;;
51048;SDS011;37084;55.228;36.450;2023-06-24T14:42:09;5.63;;;3.20;;
51048;SDS011;37084;55.228;36.450;2023-06-24T14:48:41;5.00;;;3.70;;
51048;SDS011;37084;55.228;36.450;2023-06-24T14:51:44;4.88;;;4.00;;
51048;SDS011;37084;55.228;36.450;2023-06-24T14:54:47;5.07;;;3.35;;
51048;SDS011;37084;55.228;36.450;2023-06-24T14:57:48;5.55;;;4.05;;
51048;SDS011;37084;55.228;36.450;2023-06-24T15:00:50;4.32;;;3.70;;
51048;SDS011;37084;55.228;36.450;2023-06-24T15:04:00;5.55;;;3.53;;
51048;SDS011;37084;55.228;36.450;2023-06-24T15:10:05;4.70;;;3.75;;
51048;SDS011;37084;55.228;36.450;2023-06-24T15:13:08;4.30;;;3.38;;
51048;SDS011;37084;55.228;36.450;2023-06-24T15:16:12;4.22;;;3.58;;
51048;SDS011;37084;55.228;36.450;2023-06-24T15:19:19;3.92;;;3.50;;
51048;SDS011;37084;55.228;36.450;2023-06-24T15:22:22;6.50;;;4.75;;
51048;SDS011;37084;55.228;36.450;2023-06-24T15:25:26;5.20;;;4.35;;
51048;SDS011;37084;55.228;36.450;2023-06-24T15:28:29;6.38;;;3.92;;
51048;SDS011;37084;55.228;36.450;2023-06-24T15:31:31;5.05;;;4.07;;
51048;SDS011;37084;55.228;36.450;2023-06-24T15:34:33;7.68;;;5.47;;
51048;SDS011;37084;55.228;36.450;2023-06-24T15:37:34;5.68;;;4.45;;
51048;SDS011;37084;55.228;36.450;2023-06-24T15:40:40;5.85;;;4.78;;
51048;SDS011;37084;55.228;36.450;2023-06-24T15:43:41;5.85;;;4.45;;
51048;SDS011;37084;55.228;36.450;2023-06-24T15:46:44;5.80;;;4.30;;
51048;SDS011;37084;55.228;36.450;2023-06-24T15:49:48;6.00;;;3.97;;
51048;SDS011;37084;55.228;36.450;2023-06-24T15:52:53;4.63;;;3.58;;
51048;SDS011;37084;55.228;36.450;2023-06-24T15:55:55;6.28;;;4.25;;
51048;SDS011;37084;55.228;36.450;2023-06-24T15:58:58;4.88;;;4.05;;
51048;SDS011;37084;55.228;36.450;2023-06-24T16:01:59;8.45;;;4.43;;
51048;SDS011;37084;55.228;36.450;2023-06-24T16:05:00;5.55;;;4.00;;
51048;SDS011;37084;55.228;36.450;2023-06-24T16:08:06;3.75;;;3.33;;
51048;SDS011;37084;55.228;36.450;2023-06-24T16:11:07;5.07;;;3.63;;
51048;SDS011;37084;55.228;36.450;2023-06-24T16:14:08;4.05;;;3.65;;
51048;SDS011;37084;55.228;36.450;2023-06-24T16:17:10;5.32;;;3.80;;
51048;SDS011;37084;55.228;36.450;2023-06-24T16:20:13;17.85;;;12.90;;
51048;SDS011;37084;55.228;36.450;2023-06-24T16:23:17;4.85;;;3.75;;
51048;SDS011;37084;55.228;36.450;2023-06-24T16:26:18;20.63;;;16.58;;
51048;SDS011;37084;55.228;36.450;2023-06-24T16:29:20;10.43;;;7.03;;
51048;SDS011;37084;55.228;36.450;2023-06-24T16:32:22;8.43;;;6.82;;
51048;SDS011;37084;55.228;36.450;2023-06-24T16:35:23;5.10;;;4.10;;
51048;SDS011;37084;55.228;36.450;2023-06-24T16:38:24;3.67;;;3.05;;
51048;SDS011;37084;55.228;36.450;2023-06-24T16:41:27;4.47;;;2.78;;
51048;SDS011;37084;55.228;36.450;2023-06-24T16:44:28;3.75;;;2.83;;
51048;SDS011;37084;55.228;36.450;2023-06-24T16:47:33;3.40;;;3.10;;
51048;SDS011;37084;55.228;36.450;2023-06-24T16:50:35;4.95;;;3.35;;
51048;SDS011;37084;55.228;36.450;2023-06-24T16:53:36;7.47;;;4.65;;
51048;SDS011;37084;55.228;36.450;2023-06-24T16:56:39;3.85;;;2.97;;
51048;SDS011;37084;55.228;36.450;2023-06-24T16:59:45;3.92;;;3.58;;
51048;SDS011;37084;55.228;36.450;2023-06-24T17:02:46;3.60;;;3.00;;
51048;SDS011;37084;55.228;36.450;2023-06-24T17:05:47;3.10;;;2.78;;
51048;SDS011;37084;55.228;36.450;2023-06-24T17:08:48;5.05;;;3.17;;
51048;SDS011;37084;55.228;36.450;2023-06-24T17:11:53;3.88;;;3.10;;
51048;SDS011;37084;55.228;36.450;2023-06-24T17:14:54;4.13;;;2.78;;
51048;SDS011;37084;55.228;36.450;2023-06-24T17:17:59;5.28;;;3.13;;
51048;SDS011;37084;55.228;36.450;2023-06-24T17:21:02;4.10;;;3.22;;
51048;SDS011;37084;55.228;36.450;2023-06-24T17:24:05;4.82;;;3.17;;
51048;SDS011;37084;55.228;36.450;2023-06-24T17:27:09;4.78;;;3.22;;
51048;SDS011;37084;55.228;36.450;2023-06-24T17:30:12;6.45;;;3.17;;
51048;SDS011;37084;55.228;36.450;2023-06-24T17:33:15;7.55;;;3.60;;
51048;SDS011;37084;55.228;36.450;2023-06-24T17:36:19;5.57;;;3.67;;
51048;SDS011;37084;55.228;36.450;2023-06-24T17:39:24;5.40;;;3.10;;
51048;SDS011;37084;55.228;36.450;2023-06-24T17:42:28;5.40;;;3.58;;
51048;SDS011;37084;55.228;36.450;2023-06-24T17:45:30;4.90;;;3.42;;
51048;SDS011;37084;55.228;36.450;2023-06-24T17:48:31;5.43;;;4.07;;
51048;SDS011;37084;55.228;36.450;2023-06-24T17:51:32;16.95;;;13.55;;
51048;SDS011;37084;55.228;36.450;2023-06-24T17:54:34;8.77;;;6.40;;
51048;SDS011;37084;55.228;36.450;2023-06-24T18:00:40;11.35;;;10.07;;
51048;SDS011;37084;55.228;36.450;2023-06-24T18:03:43;10.20;;;8.00;;
51048;SDS011;37084;55.228;36.450;2023-06-24T18:06:47;7.10;;;5.47;;
51048;SDS011;37084;55.228;36.450;2023-06-24T18:09:49;10.70;;;5.53;;
51048;SDS011;37084;55.228;36.450;2023-06-24T18:12:51;5.85;;;4.47;;
51048;SDS011;37084;55.228;36.450;2023-06-24T18:15:54;6.22;;;4.10;;
51048;SDS011;37084;55.228;36.450;2023-06-24T18:18:57;5.63;;;3.90;;
51048;SDS011;37084;55.228;36.450;2023-06-24T18:22:04;7.22;;;4.45;;
51048;SDS011;37084;55.228;36.450;2023-06-24T18:25:05;7.63;;;4.70;;
51048;SDS011;37084;55.228;36.450;2023-06-24T18:28:10;6.30;;;4.82;;
51048;SDS011;37084;55.228;36.450;2023-06-24T18:31:11;7.68;;;4.45;;